sensor_id;sensor_type;location;lat;lon;timestamp;pressure;altitude;pressure_sealevel;temperature;humidity
55610;BME280;41486;52.502;13.486;2023-03-16T00:00:20;101514.59;;;0.80;100.00
55610;BME280;41486;52.502;13.486;2023-03-16T00:02:48;101532.16;;;1.08;100.00
55610;BME280;41486;52.502;13.486;2023-03-16T00:05:16;101531.34;;;1.04;100.00
55610;BME280;41486;52.502;13.486;2023-03-16T00:07:44;101534.25;;;0.90;100.00
55610;BME280;41486;52.502;13.486;2023-03-16T00:10:13;101529.22;;;0.83;100.00
55610;BME280;41486;52.502;13.486;2023-03-16T00:12:42;101530.38;;;0.69;100.00
55610;BME280;41486;52.502;13.486;2023-03-16T00:15:11;101533.38;;;0.90;100.00
55610;BME280;41486;52.502;13.486;2023-03-16T00:17:40;101536.50;;;0.65;100.00
55610;BME280;41486;52.502;13.486;2023-03-16T00:20:14;101533.69;;;0.76;100.00
55610;BME280;41486;52.502;13.486;2023-03-16T00:22:43;101534.69;;;0.69;100.00
55610;BME280;41486;52.502;13.486;2023-03-16T00:25:12;101533.00;;;0.68;100.00
55610;BME280;41486;52.502;13.486;2023-03-16T00:27:40;101531.09;;;0.76;100.00
55610;BME280;41486;52.502;13.486;2023-03-16T00:30:11;101531.91;;;0.78;100.00
55610;BME280;41486;52.502;13.486;2023-03-16T00:32:39;101530.28;;;0.72;100.00
55610;BME280;41486;52.502;13.486;2023-03-16T00:35:08;101534.91;;;0.58;100.00
55610;BME280;41486;52.502;13.486;2023-03-16T00:37:36;101543.72;;;0.49;100.00
55610;BME280;41486;52.502;13.486;2023-03-16T00:40:06;101539.16;;;0.62;100.00
55610;BME280;41486;52.502;13.486;2023-03-16T00:42:37;101537.28;;;0.69;100.00
55610;BME280;41486;52.502;13.486;2023-03-16T00:45:06;101540.81;;;0.65;100.00
55610;BME280;41486;52.502;13.486;2023-03-16T00:47:36;101543.31;;;0.69;100.00
55610;BME280;41486;52.502;13.486;2023-03-16T00:50:05;101540.00;;;0.62;100.00
55610;BME280;41486;52.502;13.486;2023-03-16T00:52:33;101550.50;;;0.56;100.00
55610;BME280;41486;52.502;13.486;2023-03-16T00:55:02;101542.72;;;0.56;100.00
55610;BME280;41486;52.502;13.486;2023-03-16T00:57:30;101548.97;;;0.46;100.00
55610;BME280;41486;52.502;13.486;2023-03-16T00:59:58;101547.06;;;0.54;100.00
55610;BME280;41486;52.502;13.486;2023-03-16T01:02:31;101552.50;;;0.42;100.00
55610;BME280;41486;52.502;13.486;2023-03-16T01:05:04;101553.56;;;0.31;100.00
55610;BME280;41486;52.502;13.486;2023-03-16T01:07:32;101554.00;;;0.54;100.00
55610;BME280;41486;52.502;13.486;2023-03-16T01:10:01;101545.66;;;0.39;100.00
55610;BME280;41486;52.502;13.486;2023-03-16T01:12:29;101555.97;;;0.41;100.00
55610;BME280;41486;52.502;13.486;2023-03-16T01:14:57;101556.75;;;0.44;100.00
55610;BME280;41486;52.502;13.486;2023-03-16T01:17:26;101552.84;;;0.23;100.00
55610;BME280;41486;52.502;13.486;2023-03-16T01:19:54;101551.88;;;0.29;100.00
55610;BME280;41486;52.502;13.486;2023-03-16T01:22:23;101551.88;;;0.29;100.00
55610;BME280;41486;52.502;13.486;2023-03-16T01:24:51;101547.63;;;0.25;100.00
55610;BME280;41486;52.502;13.486;2023-03-16T01:27:20;101555.84;;;0.47;100.00
55610;BME280;41486;52.502;13.486;2023-03-16T01:29:52;101554.06;;;0.51;100.00
55610;BME280;41486;52.502;13.486;2023-03-16T01:32:20;101549.34;;;0.27;100.00
55610;BME280;41486;52.502;13.486;2023-03-16T01:34:48;101549.84;;;0.45;100.00
55610;BME280;41486;52.502;13.486;2023-03-16T01:37:17;101550.06;;;0.34;100.00
55610;BME280;41486;52.502;13.486;2023-03-16T01:39:57;101543.88;;;-0.07;100.00
55610;BME280;41486;52.502;13.486;2023-03-16T01:42:25;101545.75;;;-0.14;100.00
55610;BME280;41486;52.502;13.486;2023-03-16T01:44:55;101552.72;;;-0.19;100.00
55610;BME280;41486;52.502;13.486;2023-03-16T01:47:31;101551.13;;;-0.26;100.00
55610;BME280;41486;52.502;13.486;2023-03-16T01:50:05;101556.31;;;-0.28;100.00
55610;BME280;41486;52.502;13.486;2023-03-16T01:52:37;101551.16;;;-0.28;100.00
55610;BME280;41486;52.502;13.486;2023-03-16T01:55:09;101556.22;;;-0.22;100.00
55610;BME280;41486;52.502;13.486;2023-03-16T01:57:42;101555.53;;;-0.32;100.00
55610;BME280;41486;52.502;13.486;2023-03-16T02:00:14;101557.09;;;-0.21;100.00
55610;BME280;41486;52.502;13.486;2023-03-16T02:03:14;101556.34;;;-0.31;100.00
55610;BME280;41486;52.502;13.486;2023-03-16T02:05:56;101546.91;;;-0.34;100.00
55610;BME280;41486;52.502;13.486;2023-03-16T02:08:28;101549.69;;;-0.44;100.00
55610;BME280;41486;52.502;13.486;2023-03-16T02:10:59;101549.78;;;-0.51;100.00
55610;BME280;41486;52.502;13.486;2023-03-16T02:13:48;101540.16;;;-0.41;100.00
55610;BME280;41486;52.502;13.486;2023-03-16T02:16:19;101540.88;;;-0.33;100.00
55610;BME280;41486;52.502;13.486;2023-03-16T02:18:49;101542.94;;;-0.53;100.00
55610;BME280;41486;52.502;13.486;2023-03-16T02:21:21;101541.34;;;-0.62;100.00
55610;BME280;41486;52.502;13.486;2023-03-16T02:23:53;101542.09;;;-0.55;100.00
55610;BME280;41486;52.502;13.486;2023-03-16T02:26:28;101540.44;;;-0.59;100.00
55610;BME280;41486;52.502;13.486;2023-03-16T02:29:10;101539.69;;;-0.68;100.00
55610;BME280;41486;52.502;13.486;2023-03-16T02:31:45;101534.59;;;-0.71;100.00
55610;BME280;41486;52.502;13.486;2023-03-16T02:34:15;101539.75;;;-0.71;100.00
55610;BME280;41486;52.502;13.486;2023-03-16T02:36:45;101540.63;;;-0.72;100.00
55610;BME280;41486;52.502;13.486;2023-03-16T02:39:17;101538.06;;;-0.75;100.00
55610;BME280;41486;52.502;13.486;2023-03-16T02:41:46;101547.66;;;-0.83;100.00
55610;BME280;41486;52.502;13.486;2023-03-16T02:44:16;101545.09;;;-0.82;100.00
55610;BME280;41486;52.502;13.486;2023-03-16T02:46:54;101543.31;;;-0.80;100.00
55610;BME280;41486;52.502;13.486;2023-03-16T02:49:26;101551.75;;;-0.65;100.00
55610;BME280;41486;52.502;13.486;2023-03-16T02:51:54;101550.13;;;-0.74;100.00
55610;BME280;41486;52.502;13.486;2023-03-16T02:54:23;101549.47;;;-0.88;100.00
55610;BME280;41486;52.502;13.486;2023-03-16T02:56:51;101547.63;;;-0.80;100.00
55610;BME280;41486;52.502;13.486;2023-03-16T02:59:21;101549.38;;;-0.82;100.00
55610;BME280;41486;52.502;13.486;2023-03-16T03:01:49;101553.66;;;-0.78;100.00
55610;BME280;41486;52.502;13.486;2023-03-16T03:04:20;101543.25;;;-0.75;100.00
55610;BME280;41486;52.502;13.486;2023-03-16T03:06:49;101556.16;;;-0.75;100.00
55610;BME280;41486;52.502;13.486;2023-03-16T03:09:17;101561.34;;;-0.75;100.00
55610;BME280;41486;52.502;13.486;2023-03-16T03:11:50;101557.94;;;-0.78;100.00
55610;BME280;41486;52.502;13.486;2023-03-16T03:14:20;101553.50;;;-0.70;100.00
55610;BME280;41486;52.502;13.486;2023-03-16T03:16:49;101565.81;;;-0.88;100.00
55610;BME280;41486;52.502;13.486;2023-03-16T03:19:20;101565.81;;;-0.86;100.00
55610;BME280;41486;52.502;13.486;2023-03-16T03:21:51;101567.59;;;-0.91;100.00
55610;BME280;41486;52.502;13.486;2023-03-16T03:24:23;101577.84;;;-0.84;100.00
55610;BME280;41486;52.502;13.486;2023-03-16T03:26:51;101578.63;;;-0.78;100.00
55610;BME280;41486;52.502;13.486;2023-03-16T03:29:19;101580.50;;;-0.90;100.00
55610;BME280;41486;52.502;13.486;2023-03-16T03:31:47;101572.91;;;-1.01;100.00
55610;BME280;41486;52.502;13.486;2023-03-16T03:34:15;101572.97;;;-1.05;100.00
55610;BME280;41486;52.502;13.486;2023-03-16T03:36:43;101580.69;;;-1.04;100.00
55610;BME280;41486;52.502;13.486;2023-03-16T03:39:13;101576.38;;;-1.03;100.00
55610;BME280;41486;52.502;13.486;2023-03-16T03:41:41;101578.88;;;-0.96;100.00
55610;BME280;41486;52.502;13.486;2023-03-16T03:44:10;101578.88;;;-0.97;100.00
55610;BME280;41486;52.502;13.486;2023-03-16T03:46:38;101579.81;;;-1.03;100.00
55610;BME280;41486;52.502;13.486;2023-03-16T03:49:06;101584.13;;;-1.03;100.00
55610;BME280;41486;52.502;13.486;2023-03-16T03:51:34;101590.34;;;-1.20;100.00
55610;BME280;41486;52.502;13.486;2023-03-16T03:54:09;101584.22;;;-1.11;100.00
55610;BME280;41486;52.502;13.486;2023-03-16T03:56:50;101582.53;;;-1.15;100.00
55610;BME280;41486;52.502;13.486;2023-03-16T03:59:21;101579.09;;;-1.14;100.00
55610;BME280;41486;52.502;13.486;2023-03-16T04:02:15;101583.50;;;-1.21;100.00
55610;BME280;41486;52.502;13.486;2023-03-16T04:04:49;101587.66;;;-1.11;100.00
55610;BME280;41486;52.502;13.486;2023-03-16T04:07:18;101581.63;;;-1.09;100.00
55610;BME280;41486;52.502;13.486;2023-03-16T04:09:47;101589.66;;;-1.33;100.00
55610;BME280;41486;52.502;13.486;2023-03-16T04:12:37;101582.53;;;-1.15;100.00
55610;BME280;41486;52.502;13.486;2023-03-16T04:15:08;101583.06;;;-0.88;100.00
55610;BME280;41486;52.502;13.486;2023-03-16T04:18:07;101584.59;;;-0.73;100.00
55610;BME280;41486;52.502;13.486;2023-03-16T04:20:35;101580.75;;;-0.46;100.00
55610;BME280;41486;52.502;13.486;2023-03-16T04:23:04;101585.28;;;-0.60;100.00
55610;BME280;41486;52.502;13.486;2023-03-16T04:25:34;101578.41;;;-0.63;100.00
55610;BME280;41486;52.502;13.486;2023-03-16T04:28:06;101579.94;;;-0.50;100.00
55610;BME280;41486;52.502;13.486;2023-03-16T04:30:37;101579.09;;;-0.52;100.00
55610;BME280;41486;52.502;13.486;2023-03-16T04:33:16;101579.28;;;-0.62;100.00
55610;BME280;41486;52.502;13.486;2023-03-16T04:35:45;101583.53;;;-0.60;100.00
55610;BME280;41486;52.502;13.486;2023-03-16T04:38:14;101584.25;;;-0.49;100.00
55610;BME280;41486;52.502;13.486;2023-03-16T04:40:52;101584.41;;;-0.61;100.00
55610;BME280;41486;52.502;13.486;2023-03-16T04:43:24;101590.34;;;-0.54;100.00
55610;BME280;41486;52.502;13.486;2023-03-16T04:45:57;101583.03;;;-0.85;100.00
55610;BME280;41486;52.502;13.486;2023-03-16T04:48:29;101581.97;;;-0.72;100.00
55610;BME280;41486;52.502;13.486;2023-03-16T04:50:58;101585.75;;;-0.96;100.00
55610;BME280;41486;52.502;13.486;2023-03-16T04:53:30;101587.94;;;-0.65;100.00
55610;BME280;41486;52.502;13.486;2023-03-16T04:56:05;101590.94;;;-0.98;100.00
55610;BME280;41486;52.502;13.486;2023-03-16T04:58:36;101586.81;;;-1.11;100.00
55610;BME280;41486;52.502;13.486;2023-03-16T05:01:05;101593.78;;;-1.18;100.00
55610;BME280;41486;52.502;13.486;2023-03-16T05:03:34;101602.09;;;-0.92;100.00
55610;BME280;41486;52.502;13.486;2023-03-16T05:06:02;101595.16;;;-0.90;100.00
55610;BME280;41486;52.502;13.486;2023-03-16T05:08:32;101603.56;;;-0.74;100.00
55610;BME280;41486;52.502;13.486;2023-03-16T05:11:00;101596.16;;;-1.01;100.00
55610;BME280;41486;52.502;13.486;2023-03-16T05:13:32;101606.69;;;-1.16;100.00
55610;BME280;41486;52.502;13.486;2023-03-16T05:16:02;101604.91;;;-1.13;100.00
55610;BME280;41486;52.502;13.486;2023-03-16T05:18:35;101601.53;;;-1.18;100.00
55610;BME280;41486;52.502;13.486;2023-03-16T05:21:03;101601.28;;;-0.98;100.00
55610;BME280;41486;52.502;13.486;2023-03-16T05:23:43;101598.00;;;-1.09;100.00
55610;BME280;41486;52.502;13.486;2023-03-16T05:26:12;101604.84;;;-1.08;100.00
55610;BME280;41486;52.502;13.486;2023-03-16T05:28:40;101604.81;;;-1.05;100.00
55610;BME280;41486;52.502;13.486;2023-03-16T05:31:13;101607.44;;;-1.09;100.00
55610;BME280;41486;52.502;13.486;2023-03-16T05:33:46;101606.72;;;-1.19;100.00
55610;BME280;41486;52.502;13.486;2023-03-16T05:36:18;101611.94;;;-1.24;100.00
55610;BME280;41486;52.502;13.486;2023-03-16T05:38:50;101617.88;;;-1.17;100.00
55610;BME280;41486;52.502;13.486;2023-03-16T05:41:30;101623.13;;;-1.25;100.00
55610;BME280;41486;52.502;13.486;2023-03-16T05:44:14;101611.84;;;-1.16;100.00
55610;BME280;41486;52.502;13.486;2023-03-16T05:47:02;101610.16;;;-1.20;100.00
55610;BME280;41486;52.502;13.486;2023-03-16T05:49:33;101616.22;;;-1.23;100.00
55610;BME280;41486;52.502;13.486;2023-03-16T05:52:05;101619.66;;;-1.21;100.00
55610;BME280;41486;52.502;13.486;2023-03-16T05:54:34;101623.09;;;-1.20;100.00
55610;BME280;41486;52.502;13.486;2023-03-16T05:57:02;101622.91;;;-1.08;100.00
55610;BME280;41486;52.502;13.486;2023-03-16T05:59:33;101628.19;;;-1.16;100.00
55610;BME280;41486;52.502;13.486;2023-03-16T06:02:03;101633.28;;;-1.09;100.00
55610;BME280;41486;52.502;13.486;2023-03-16T06:04:32;101635.97;;;-1.17;100.00
55610;BME280;41486;52.502;13.486;2023-03-16T06:07:01;101647.16;;;-1.20;100.00
55610;BME280;41486;52.502;13.486;2023-03-16T06:09:29;101642.78;;;-1.13;100.00
55610;BME280;41486;52.502;13.486;2023-03-16T06:11:58;101635.00;;;-1.08;100.00
55610;BME280;41486;52.502;13.486;2023-03-16T06:14:26;101638.38;;;-1.02;100.00
55610;BME280;41486;52.502;13.486;2023-03-16T06:16:55;101638.25;;;-0.94;100.00
55610;BME280;41486;52.502;13.486;2023-03-16T06:19:25;101644.19;;;-0.86;100.00
55610;BME280;41486;52.502;13.486;2023-03-16T06:21:58;101635.50;;;-0.80;100.00
55610;BME280;41486;52.502;13.486;2023-03-16T06:24:27;101638.06;;;-0.77;100.00
55610;BME280;41486;52.502;13.486;2023-03-16T06:26:56;101636.22;;;-0.69;100.00
55610;BME280;41486;52.502;13.486;2023-03-16T06:29:31;101644.41;;;-0.37;100.00
55610;BME280;41486;52.502;13.486;2023-03-16T06:31:59;101650.44;;;-0.37;100.00
55610;BME280;41486;52.502;13.486;2023-03-16T06:34:29;101651.94;;;-0.22;100.00
55610;BME280;41486;52.502;13.486;2023-03-16T06:36:57;101651.63;;;-0.02;100.00
55610;BME280;41486;52.502;13.486;2023-03-16T06:39:25;101656.78;;;0.00;100.00
55610;BME280;41486;52.502;13.486;2023-03-16T06:41:54;101658.72;;;-0.13;100.00
55610;BME280;41486;52.502;13.486;2023-03-16T06:44:22;101661.19;;;-0.07;100.00
55610;BME280;41486;52.502;13.486;2023-03-16T06:47:05;101661.03;;;0.04;100.00
55610;BME280;41486;52.502;13.486;2023-03-16T06:49:35;101657.50;;;0.10;100.00
55610;BME280;41486;52.502;13.486;2023-03-16T06:52:10;101668.72;;;0.09;100.00
55610;BME280;41486;52.502;13.486;2023-03-16T06:54:39;101673.09;;;0.05;100.00
55610;BME280;41486;52.502;13.486;2023-03-16T06:57:08;101675.06;;;0.44;100.00
55610;BME280;41486;52.502;13.486;2023-03-16T06:59:37;101675.94;;;0.43;100.00
55610;BME280;41486;52.502;13.486;2023-03-16T07:02:12;101678.34;;;0.52;100.00
55610;BME280;41486;52.502;13.486;2023-03-16T07:04:44;101682.47;;;0.62;100.00
55610;BME280;41486;52.502;13.486;2023-03-16T07:07:13;101683.47;;;0.55;100.00
55610;BME280;41486;52.502;13.486;2023-03-16T07:09:41;101688.44;;;0.66;100.00
55610;BME280;41486;52.502;13.486;2023-03-16T07:12:10;101690.13;;;0.69;100.00
55610;BME280;41486;52.502;13.486;2023-03-16T07:14:44;101698.69;;;0.74;100.00
55610;BME280;41486;52.502;13.486;2023-03-16T07:17:19;101710.69;;;0.80;100.00
55610;BME280;41486;52.502;13.486;2023-03-16T07:19:50;101702.72;;;0.89;100.00
55610;BME280;41486;52.502;13.486;2023-03-16T07:22:18;101699.81;;;1.06;100.00
55610;BME280;41486;52.502;13.486;2023-03-16T07:24:47;101710.50;;;1.33;99.80
55610;BME280;41486;52.502;13.486;2023-03-16T07:27:26;101710.31;;;1.44;96.87
55610;BME280;41486;52.502;13.486;2023-03-16T07:29:56;101710.16;;;1.50;99.52
55610;BME280;41486;52.502;13.486;2023-03-16T07:32:28;101707.66;;;1.45;97.52
55610;BME280;41486;52.502;13.486;2023-03-16T07:35:01;101716.84;;;1.62;96.46
55610;BME280;41486;52.502;13.486;2023-03-16T07:37:31;101712.94;;;1.81;94.99
55610;BME280;41486;52.502;13.486;2023-03-16T07:40:05;101728.41;;;1.86;93.45
55610;BME280;41486;52.502;13.486;2023-03-16T07:42:35;101733.34;;;1.97;93.12
55610;BME280;41486;52.502;13.486;2023-03-16T07:45:09;101723.53;;;2.10;90.77
55610;BME280;41486;52.502;13.486;2023-03-16T07:47:38;101720.69;;;2.20;91.59
55610;BME280;41486;52.502;13.486;2023-03-16T07:50:15;101724.09;;;2.24;90.09
55610;BME280;41486;52.502;13.486;2023-03-16T07:52:47;101720.63;;;2.24;89.01
55610;BME280;41486;52.502;13.486;2023-03-16T07:55:15;101709.28;;;2.28;90.89
55610;BME280;41486;52.502;13.486;2023-03-16T07:57:44;101714.63;;;2.56;88.99
55610;BME280;41486;52.502;13.486;2023-03-16T08:00:18;101723.00;;;2.67;87.37
55610;BME280;41486;52.502;13.486;2023-03-16T08:02:49;101723.47;;;2.83;87.20
55610;BME280;41486;52.502;13.486;2023-03-16T08:05:19;101729.63;;;2.79;88.00
55610;BME280;41486;52.502;13.486;2023-03-16T08:07:52;101734.56;;;2.89;88.35
55610;BME280;41486;52.502;13.486;2023-03-16T08:10:24;101743.03;;;2.97;83.63
55610;BME280;41486;52.502;13.486;2023-03-16T08:13:01;101742.81;;;3.05;82.24
55610;BME280;41486;52.502;13.486;2023-03-16T08:15:31;101738.13;;;3.18;80.05
55610;BME280;41486;52.502;13.486;2023-03-16T08:18:08;101737.19;;;3.20;79.44
55610;BME280;41486;52.502;13.486;2023-03-16T08:20:37;101723.78;;;3.34;79.07
55610;BME280;41486;52.502;13.486;2023-03-16T08:23:07;101727.13;;;3.39;83.00
55610;BME280;41486;52.502;13.486;2023-03-16T08:25:40;101728.47;;;3.53;81.21
55610;BME280;41486;52.502;13.486;2023-03-16T08:28:13;101728.25;;;3.60;79.21
55610;BME280;41486;52.502;13.486;2023-03-16T08:30:45;101725.78;;;3.56;78.26
55610;BME280;41486;52.502;13.486;2023-03-16T08:33:34;101736.75;;;3.66;79.25
55610;BME280;41486;52.502;13.486;2023-03-16T08:36:06;101735.63;;;3.74;74.96
55610;BME280;41486;52.502;13.486;2023-03-16T08:38:35;101736.56;;;3.72;72.08
55610;BME280;41486;52.502;13.486;2023-03-16T08:41:06;101736.16;;;3.86;71.99
55610;BME280;41486;52.502;13.486;2023-03-16T08:43:35;101737.88;;;3.87;73.21
55610;BME280;41486;52.502;13.486;2023-03-16T08:46:03;101741.72;;;4.03;74.95
55610;BME280;41486;52.502;13.486;2023-03-16T08:48:43;101744.78;;;4.16;71.90
55610;BME280;41486;52.502;13.486;2023-03-16T08:51:16;101748.03;;;4.23;72.18
55610;BME280;41486;52.502;13.486;2023-03-16T08:53:45;101749.53;;;4.30;73.04
55610;BME280;41486;52.502;13.486;2023-03-16T08:56:13;101752.75;;;4.38;74.17
55610;BME280;41486;52.502;13.486;2023-03-16T08:58:43;101758.53;;;4.48;70.30
55610;BME280;41486;52.502;13.486;2023-03-16T09:01:13;101748.69;;;4.56;70.92
55610;BME280;41486;52.502;13.486;2023-03-16T09:03:43;101752.81;;;4.64;69.61
55610;BME280;41486;52.502;13.486;2023-03-16T09:06:14;101752.53;;;4.71;69.90
55610;BME280;41486;52.502;13.486;2023-03-16T09:08:44;101752.22;;;4.81;68.67
55610;BME280;41486;52.502;13.486;2023-03-16T09:11:15;101746.91;;;4.84;67.45
55610;BME280;41486;52.502;13.486;2023-03-16T09:13:43;101757.88;;;4.94;67.65
55610;BME280;41486;52.502;13.486;2023-03-16T09:16:12;101755.78;;;5.03;67.05
55610;BME280;41486;52.502;13.486;2023-03-16T09:18:41;101765.22;;;5.08;63.88
55610;BME280;41486;52.502;13.486;2023-03-16T09:21:10;101764.50;;;5.02;61.05
55610;BME280;41486;52.502;13.486;2023-03-16T09:23:40;101762.38;;;5.14;61.91
55610;BME280;41486;52.502;13.486;2023-03-16T09:26:11;101764.94;;;5.15;61.76
55610;BME280;41486;52.502;13.486;2023-03-16T09:28:40;101765.56;;;5.22;58.82
55610;BME280;41486;52.502;13.486;2023-03-16T09:31:14;101769.59;;;5.31;59.75
55610;BME280;41486;52.502;13.486;2023-03-16T09:33:43;101770.47;;;5.31;56.44
55610;BME280;41486;52.502;13.486;2023-03-16T09:36:12;101767.13;;;5.28;55.65
55610;BME280;41486;52.502;13.486;2023-03-16T09:38:41;101776.03;;;5.46;55.42
55610;BME280;41486;52.502;13.486;2023-03-16T09:41:25;101770.06;;;5.42;55.66
55610;BME280;41486;52.502;13.486;2023-03-16T09:44:03;101769.44;;;5.59;55.33
55610;BME280;41486;52.502;13.486;2023-03-16T09:46:35;101770.06;;;5.66;57.45
55610;BME280;41486;52.502;13.486;2023-03-16T09:49:05;101768.50;;;5.84;58.50
55610;BME280;41486;52.502;13.486;2023-03-16T09:51:40;101775.38;;;5.87;56.57
55610;BME280;41486;52.502;13.486;2023-03-16T09:54:17;101771.09;;;6.08;60.95
55610;BME280;41486;52.502;13.486;2023-03-16T10:00:16;101776.66;;;6.00;52.81
55610;BME280;41486;52.502;13.486;2023-03-16T10:06:31;101780.16;;;6.21;52.17
55610;BME280;41486;52.502;13.486;2023-03-16T10:09:42;101777.13;;;6.10;53.16
55610;BME280;41486;52.502;13.486;2023-03-16T10:12:35;101775.91;;;6.19;49.66
55610;BME280;41486;52.502;13.486;2023-03-16T10:15:09;101771.66;;;6.38;51.39
55610;BME280;41486;52.502;13.486;2023-03-16T10:17:43;101775.00;;;6.42;47.97
55610;BME280;41486;52.502;13.486;2023-03-16T10:20:17;101774.63;;;6.51;49.18
55610;BME280;41486;52.502;13.486;2023-03-16T10:22:48;101769.25;;;6.54;47.62
55610;BME280;41486;52.502;13.486;2023-03-16T10:25:21;101779.22;;;6.67;46.39
55610;BME280;41486;52.502;13.486;2023-03-16T10:27:51;101770.06;;;6.77;45.50
55610;BME280;41486;52.502;13.486;2023-03-16T10:30:22;101771.41;;;6.65;45.24
55610;BME280;41486;52.502;13.486;2023-03-16T10:32:51;101768.28;;;6.77;44.56
55610;BME280;41486;52.502;13.486;2023-03-16T10:35:28;101768.34;;;6.55;45.59
55610;BME280;41486;52.502;13.486;2023-03-16T10:37:57;101770.72;;;6.82;44.91
55610;BME280;41486;52.502;13.486;2023-03-16T10:40:30;101764.81;;;6.98;44.12
55610;BME280;41486;52.502;13.486;2023-03-16T10:43:06;101756.78;;;7.02;41.70
55610;BME280;41486;52.502;13.486;2023-03-16T10:45:35;101766.19;;;7.06;42.90
55610;BME280;41486;52.502;13.486;2023-03-16T10:48:07;101757.50;;;7.06;44.13
55610;BME280;41486;52.502;13.486;2023-03-16T10:50:36;101760.31;;;7.01;45.22
55610;BME280;41486;52.502;13.486;2023-03-16T10:53:14;101754.59;;;7.12;46.00
55610;BME280;41486;52.502;13.486;2023-03-16T10:55:43;101754.19;;;7.21;46.81
55610;BME280;41486;52.502;13.486;2023-03-16T10:58:21;101754.81;;;7.47;45.64
55610;BME280;41486;52.502;13.486;2023-03-16T11:00:50;101764.78;;;7.39;44.64
55610;BME280;41486;52.502;13.486;2023-03-16T11:03:21;101760.56;;;7.35;44.34
55610;BME280;41486;52.502;13.486;2023-03-16T11:05:59;101750.75;;;7.40;44.70
55610;BME280;41486;52.502;13.486;2023-03-16T11:08:31;101758.91;;;7.72;43.80
55610;BME280;41486;52.502;13.486;2023-03-16T11:11:07;101747.47;;;7.35;43.86
55610;BME280;41486;52.502;13.486;2023-03-16T11:13:44;101751.69;;;7.58;42.26
55610;BME280;41486;52.502;13.486;2023-03-16T11:16:21;101756.56;;;7.85;43.47
55610;BME280;41486;52.502;13.486;2023-03-16T11:18:53;101749.47;;;7.68;44.98
55610;BME280;41486;52.502;13.486;2023-03-16T11:21:29;101742.13;;;7.76;44.18
55610;BME280;41486;52.502;13.486;2023-03-16T11:24:03;101733.16;;;7.99;44.45
55610;BME280;41486;52.502;13.486;2023-03-16T11:26:34;101732.94;;;8.21;45.07
55610;BME280;41486;52.502;13.486;2023-03-16T11:29:14;101732.66;;;8.45;44.17
55610;BME280;41486;52.502;13.486;2023-03-16T11:31:46;101727.91;;;8.36;46.07
55610;BME280;41486;52.502;13.486;2023-03-16T11:34:22;101738.75;;;8.28;44.51
55610;BME280;41486;52.502;13.486;2023-03-16T11:36:55;101743.91;;;8.49;43.22
55610;BME280;41486;52.502;13.486;2023-03-16T11:39:30;101731.31;;;8.56;42.58
55610;BME280;41486;52.502;13.486;2023-03-16T11:42:15;101728.09;;;8.50;41.13
55610;BME280;41486;52.502;13.486;2023-03-16T11:44:51;101724.44;;;8.88;42.12
55610;BME280;41486;52.502;13.486;2023-03-16T11:50:35;101719.09;;;8.90;40.98
55610;BME280;41486;52.502;13.486;2023-03-16T11:53:13;101717.91;;;9.29;41.30
55610;BME280;41486;52.502;13.486;2023-03-16T11:55:51;101716.94;;;9.47;40.17
55610;BME280;41486;52.502;13.486;2023-03-16T11:58:34;101706.47;;;9.30;39.72
55610;BME280;41486;52.502;13.486;2023-03-16T12:01:11;101707.69;;;9.56;39.49
55610;BME280;41486;52.502;13.486;2023-03-16T12:03:53;101713.38;;;9.81;40.29
55610;BME280;41486;52.502;13.486;2023-03-16T12:06:41;101702.91;;;9.79;39.00
55610;BME280;41486;52.502;13.486;2023-03-16T12:12:21;101706.69;;;10.21;39.28
55610;BME280;41486;52.502;13.486;2023-03-16T12:15:02;101698.53;;;10.26;38.70
55610;BME280;41486;52.502;13.486;2023-03-16T12:17:36;101697.78;;;10.69;37.03
55610;BME280;41486;52.502;13.486;2023-03-16T12:20:13;101698.25;;;10.31;35.96
55610;BME280;41486;52.502;13.486;2023-03-16T12:22:46;101692.28;;;11.86;34.63
55610;BME280;41486;52.502;13.486;2023-03-16T12:25:19;101697.38;;;13.94;32.03
55610;BME280;41486;52.502;13.486;2023-03-16T12:27:52;101688.38;;;14.68;30.76
55610;BME280;41486;52.502;13.486;2023-03-16T12:30:33;101687.19;;;15.06;29.65
55610;BME280;41486;52.502;13.486;2023-03-16T12:33:10;101682.59;;;15.20;28.70
55610;BME280;41486;52.502;13.486;2023-03-16T12:35:44;101689.34;;;15.12;28.08
55610;BME280;41486;52.502;13.486;2023-03-16T12:38:30;101671.81;;;16.20;28.63
55610;BME280;41486;52.502;13.486;2023-03-16T12:41:18;101669.03;;;16.22;28.87
55610;BME280;41486;52.502;13.486;2023-03-16T12:44:00;101669.34;;;16.50;29.16
55610;BME280;41486;52.502;13.486;2023-03-16T12:46:40;101670.25;;;16.18;28.16
55610;BME280;41486;52.502;13.486;2023-03-16T12:49:11;101673.91;;;14.61;29.07
55610;BME280;41486;52.502;13.486;2023-03-16T12:51:41;101668.31;;;16.20;28.39
55610;BME280;41486;52.502;13.486;2023-03-16T12:54:21;101665.41;;;16.75;26.93
55610;BME280;41486;52.502;13.486;2023-03-16T12:56:50;101667.09;;;17.07;25.68
55610;BME280;41486;52.502;13.486;2023-03-16T12:59:21;101657.59;;;16.52;26.31
55610;BME280;41486;52.502;13.486;2023-03-16T13:01:52;101657.31;;;17.08;25.08
55610;BME280;41486;52.502;13.486;2023-03-16T13:04:30;101666.75;;;18.97;21.88
55610;BME280;41486;52.502;13.486;2023-03-16T13:07:01;101659.50;;;17.33;22.28
55610;BME280;41486;52.502;13.486;2023-03-16T13:09:30;101649.53;;;15.46;24.77
55610;BME280;41486;52.502;13.486;2023-03-16T13:12:01;101650.06;;;16.05;26.16
55610;BME280;41486;52.502;13.486;2023-03-16T13:14:37;101648.78;;;15.56;26.52
55610;BME280;41486;52.502;13.486;2023-03-16T13:17:23;101647.00;;;15.45;27.38
55610;BME280;41486;52.502;13.486;2023-03-16T13:20:23;101636.94;;;15.05;25.89